Time;durP1;ratioP1;P1;durP2;ratioP2;P2;SDS_P1;SDS_P2;PMS_P1;PMS_P2;Temp;Humidity;BMP_temperature;BMP_pressure;BME280_temperature;BME280_humidity;BME280_pressure;Samples;Min_cycle;Max_cycle;Signal;HPM_P1;HPM_P2
2023/11/30 00:00:34;;;;;;;18.77;12.40;;;6.20;99.90;;;;;;4989073;28;20283;-64
2023/11/30 00:02:59;;;;;;;15.30;12.47;;;6.20;99.90;;;;;;4995535;28;20198;-64
2023/11/30 00:05:25;;;;;;;15.17;11.43;;;6.20;99.90;;;;;;4991412;28;20299;-67
2023/11/30 00:07:52;;;;;;;19.20;13.23;;;6.10;99.90;;;;;;4992846;28;20186;-62
2023/11/30 00:10:17;;;;;;;14.73;11.77;;;6.00;99.90;;;;;;4990284;28;20246;-65
2023/11/30 00:12:43;;;;;;;18.03;12.90;;;5.80;99.90;;;;;;4988766;28;20438;-67
2023/11/30 00:15:09;;;;;;;15.50;12.07;;;5.70;99.90;;;;;;4987763;28;20188;-65
2023/11/30 00:17:34;;;;;;;16.33;12.73;;;5.60;99.90;;;;;;4988246;28;20854;-65
2023/11/30 00:20:00;;;;;;;15.47;12.00;;;5.60;99.90;;;;;;4990599;28;20435;-66
2023/11/30 00:22:26;;;;;;;19.27;13.10;;;5.50;99.90;;;;;;4988253;28;20187;-64
2023/11/30 00:24:51;;;;;;;15.10;12.40;;;5.50;99.90;;;;;;4987887;28;20223;-63
2023/11/30 00:27:17;;;;;;;15.70;12.40;;;5.40;99.90;;;;;;4989284;28;20191;-64
2023/11/30 00:29:43;;;;;;;18.13;13.63;;;5.20;99.90;;;;;;4988758;28;20262;-68
2023/11/30 00:32:08;;;;;;;16.40;12.73;;;5.20;99.90;;;;;;4988810;28;20184;-69
2023/11/30 00:34:34;;;;;;;19.07;14.67;;;5.10;99.90;;;;;;4988055;28;20192;-68
2023/11/30 00:37:00;;;;;;;16.53;12.27;;;5.10;99.90;;;;;;4988890;28;20179;-64
2023/11/30 00:39:25;;;;;;;14.90;12.10;;;5.00;99.90;;;;;;4987709;28;20296;-66
2023/11/30 00:41:51;;;;;;;21.23;13.70;;;5.00;99.90;;;;;;4987788;28;20256;-63
2023/11/30 00:44:18;;;;;;;17.60;13.20;;;5.10;99.90;;;;;;4989334;28;20252;-66
2023/11/30 00:46:44;;;;;;;20.07;12.33;;;5.10;99.90;;;;;;4988023;28;20291;-66
2023/11/30 00:49:09;;;;;;;20.97;14.27;;;5.10;99.90;;;;;;4993909;28;21121;-69
2023/11/30 00:51:35;;;;;;;19.37;13.67;;;5.10;99.90;;;;;;4989521;28;20474;-65
2023/11/30 00:54:01;;;;;;;19.50;14.47;;;5.10;99.90;;;;;;4991734;28;20206;-67
2023/11/30 00:56:26;;;;;;;20.70;14.50;;;5.00;99.90;;;;;;4989842;28;20184;-67
2023/11/30 00:58:52;;;;;;;16.70;12.97;;;4.90;99.90;;;;;;4989809;28;20206;-64
2023/11/30 01:01:18;;;;;;;20.07;14.10;;;5.00;99.90;;;;;;4987841;28;20179;-68
2023/11/30 01:03:43;;;;;;;17.30;14.03;;;5.10;99.90;;;;;;4986855;28;20188;-64
2023/11/30 01:06:09;;;;;;;20.50;14.30;;;4.90;99.90;;;;;;4987979;28;20605;-69
2023/11/30 01:08:35;;;;;;;17.23;13.30;;;4.70;99.90;;;;;;4987037;28;20545;-65
2023/11/30 01:11:02;;;;;;;18.47;13.03;;;4.70;99.90;;;;;;4988299;28;20437;-66
2023/11/30 01:13:28;;;;;;;18.60;13.07;;;4.60;99.90;;;;;;4987670;28;20184;-68
2023/11/30 01:15:54;;;;;;;18.43;13.60;;;4.50;99.90;;;;;;4987747;28;20483;-70
2023/11/30 01:18:19;;;;;;;18.03;12.40;;;4.50;99.90;;;;;;4987860;28;20188;-68
2023/11/30 01:20:45;;;;;;;17.47;13.93;;;4.50;99.90;;;;;;4987997;28;20187;-63
2023/11/30 01:23:11;;;;;;;19.90;14.13;;;4.50;99.90;;;;;;4987538;28;20284;-64
2023/11/30 01:25:36;;;;;;;18.10;13.80;;;4.40;99.90;;;;;;4987620;28;20714;-64
2023/11/30 01:28:03;;;;;;;21.60;13.87;;;4.40;99.90;;;;;;4988318;28;20260;-68
2023/11/30 01:30:29;;;;;;;19.53;13.77;;;4.40;99.90;;;;;;4988576;28;20771;-68
2023/11/30 01:32:54;;;;;;;17.67;11.67;;;4.30;99.90;;;;;;4972560;28;20504;-69
2023/11/30 01:35:20;;;;;;;18.80;14.20;;;4.30;99.90;;;;;;4988569;28;20207;-70
2023/11/30 01:37:46;;;;;;;20.03;13.63;;;4.30;99.90;;;;;;4988096;28;21654;-66
2023/11/30 01:40:11;;;;;;;21.10;15.03;;;4.30;99.90;;;;;;4985945;28;20187;-66
2023/11/30 01:42:37;;;;;;;19.60;13.63;;;4.20;99.90;;;;;;4988322;28;20218;-66
2023/11/30 01:45:06;;;;;;;17.70;13.10;;;4.30;99.90;;;;;;4988020;28;20215;-67
2023/11/30 01:47:33;;;;;;;21.27;13.83;;;4.30;99.90;;;;;;4988790;28;20191;-65
2023/11/30 01:50:00;;;;;;;19.93;13.40;;;4.40;99.90;;;;;;4988228;28;20443;-62
2023/11/30 01:52:27;;;;;;;19.30;12.50;;;4.30;99.90;;;;;;4987626;28;20484;-69
2023/11/30 01:54:53;;;;;;;20.27;13.87;;;4.30;99.90;;;;;;4987006;28;20480;-65
2023/11/30 01:57:18;;;;;;;20.37;14.50;;;4.40;99.90;;;;;;4988810;28;20529;-64
2023/11/30 01:59:45;;;;;;;16.63;12.43;;;4.40;99.90;;;;;;4987249;28;20184;-65
2023/11/30 02:02:12;;;;;;;20.30;13.57;;;4.50;99.90;;;;;;4988449;28;20264;-66
2023/11/30 02:04:42;;;;;;;20.37;13.40;;;4.50;99.90;;;;;;4972041;28;20452;-69
2023/11/30 02:07:08;;;;;;;22.07;13.53;;;4.50;99.90;;;;;;4987783;28;20443;-64
2023/11/30 02:09:34;;;;;;;17.90;12.93;;;4.50;99.90;;;;;;4989261;28;20431;-66
2023/11/30 02:12:00;;;;;;;21.57;14.33;;;4.30;99.90;;;;;;4986005;28;20419;-64
2023/11/30 02:14:25;;;;;;;18.30;12.03;;;4.40;99.90;;;;;;4987682;28;20195;-68
2023/11/30 02:16:51;;;;;;;20.43;14.30;;;4.30;99.90;;;;;;4987648;28;20721;-63
2023/11/30 02:19:17;;;;;;;18.50;13.37;;;4.10;99.90;;;;;;4988649;28;20191;-65
2023/11/30 02:21:50;;;;;;;21.10;13.87;;;4.00;99.90;;;;;;4987784;28;20222;-65
2023/11/30 02:24:16;;;;;;;20.37;13.90;;;3.90;99.90;;;;;;4987056;28;21015;-67
2023/11/30 02:26:42;;;;;;;19.13;13.80;;;3.80;99.90;;;;;;4988244;28;20552;-64
2023/11/30 02:29:07;;;;;;;20.10;14.20;;;3.80;99.90;;;;;;4987741;28;20514;-66
2023/11/30 02:31:33;;;;;;;21.30;13.40;;;3.70;99.90;;;;;;4988017;28;20676;-68
2023/11/30 02:33:59;;;;;;;22.93;15.10;;;3.60;99.90;;;;;;4986992;28;20902;-67
2023/11/30 02:36:24;;;;;;;21.47;13.93;;;3.50;99.90;;;;;;4986321;28;20612;-66
2023/11/30 02:38:50;;;;;;;19.00;12.73;;;3.40;99.90;;;;;;4986296;28;20191;-64
2023/11/30 02:41:17;;;;;;;22.80;14.60;;;3.30;99.90;;;;;;4987708;28;20256;-65
2023/11/30 02:43:43;;;;;;;23.57;15.50;;;3.30;99.90;;;;;;4986655;28;20183;-67
2023/11/30 02:46:09;;;;;;;20.73;13.83;;;3.30;99.90;;;;;;4986554;28;20477;-65
2023/11/30 02:48:36;;;;;;;21.40;14.37;;;3.30;99.90;;;;;;4988397;28;20720;-68
2023/11/30 02:51:02;;;;;;;19.30;13.20;;;3.30;99.90;;;;;;4986299;28;20217;-63
2023/11/30 02:53:28;;;;;;;23.10;13.97;;;3.30;99.90;;;;;;4987792;28;20511;-68
2023/11/30 02:55:54;;;;;;;22.33;14.37;;;3.30;99.90;;;;;;4986781;28;20199;-63
2023/11/30 02:58:19;;;;;;;19.80;13.10;;;3.40;99.90;;;;;;4989570;28;20187;-67
2023/11/30 03:00:47;;;;;;;18.80;12.67;;;3.40;99.90;;;;;;4987367;28;20262;-67
2023/11/30 03:03:13;;;;;;;17.17;11.40;;;3.50;99.90;;;;;;4985377;28;20248;-65
2023/11/30 03:05:38;;;;;;;20.30;13.77;;;3.60;99.90;;;;;;4987298;28;20470;-65
2023/11/30 03:08:04;;;;;;;20.23;14.00;;;3.60;99.90;;;;;;4987613;28;20191;-64
2023/11/30 03:10:30;;;;;;;19.93;13.23;;;3.50;99.90;;;;;;4987619;28;20188;-64
2023/11/30 03:12:55;;;;;;;21.17;13.30;;;3.40;99.90;;;;;;4986818;28;20304;-64
2023/11/30 03:15:22;;;;;;;22.63;14.50;;;3.40;99.90;;;;;;4986720;28;20199;-66
2023/11/30 03:17:48;;;;;;;21.17;12.97;;;3.30;99.90;;;;;;4986870;28;20267;-68
2023/11/30 03:20:14;;;;;;;21.30;13.67;;;3.40;99.90;;;;;;4986467;28;20438;-67
2023/11/30 03:22:39;;;;;;;22.27;14.60;;;3.40;99.90;;;;;;4987478;28;20956;-66
2023/11/30 03:25:05;;;;;;;19.07;13.43;;;3.30;99.90;;;;;;4988889;28;20225;-65
2023/11/30 03:27:31;;;;;;;22.60;14.13;;;3.30;99.90;;;;;;4991124;28;20179;-63
2023/11/30 03:29:56;;;;;;;20.70;13.30;;;3.30;99.90;;;;;;4989641;28;20419;-65
2023/11/30 03:32:22;;;;;;;23.40;14.30;;;3.20;99.90;;;;;;4989365;28;20195;-67
2023/11/30 03:34:48;;;;;;;20.13;13.47;;;3.30;99.90;;;;;;4990085;28;20179;-65
2023/11/30 03:37:13;;;;;;;20.73;13.50;;;3.30;99.90;;;;;;4989327;28;20552;-69
2023/11/30 03:39:39;;;;;;;20.80;13.70;;;3.20;99.90;;;;;;4989808;28;20192;-64
2023/11/30 03:42:05;;;;;;;22.40;13.60;;;3.20;99.90;;;;;;4989733;28;20198;-69
2023/11/30 03:44:31;;;;;;;20.77;12.30;;;3.20;99.90;;;;;;4989584;28;20191;-63
2023/11/30 03:46:56;;;;;;;25.63;14.53;;;3.30;99.90;;;;;;4990607;28;20546;-70
2023/11/30 03:49:22;;;;;;;22.13;13.33;;;3.30;99.90;;;;;;4989246;28;20555;-68
2023/11/30 03:51:47;;;;;;;19.90;13.30;;;3.30;99.90;;;;;;4991008;28;20199;-64
2023/11/30 03:54:13;;;;;;;21.77;13.70;;;3.20;99.90;;;;;;4988696;28;20218;-68
2023/11/30 03:56:39;;;;;;;20.90;13.43;;;3.10;99.90;;;;;;4990557;28;20186;-64
2023/11/30 03:59:05;;;;;;;23.77;14.07;;;3.00;99.90;;;;;;4990077;28;20418;-63
2023/11/30 04:01:30;;;;;;;17.83;11.87;;;2.90;99.90;;;;;;4990219;28;20190;-65
2023/11/30 04:03:56;;;;;;;20.33;12.87;;;2.90;99.90;;;;;;4988280;28;20187;-66
2023/11/30 04:06:23;;;;;;;21.93;14.20;;;2.90;99.90;;;;;;4988591;28;20247;-68
2023/11/30 04:08:50;;;;;;;21.63;14.67;;;3.00;99.90;;;;;;4989731;28;20636;-65
2023/11/30 04:11:16;;;;;;;21.63;13.60;;;3.00;99.90;;;;;;4988857;28;20894;-66
2023/11/30 04:13:44;;;;;;;21.40;12.87;;;3.10;99.90;;;;;;4989423;28;20442;-70
2023/11/30 04:16:13;;;;;;;20.93;13.50;;;3.10;99.90;;;;;;4988497;28;20430;-62
2023/11/30 04:18:38;;;;;;;21.73;12.70;;;3.10;99.90;;;;;;4990130;28;21233;-65
2023/11/30 04:21:05;;;;;;;19.07;11.97;;;3.10;99.90;;;;;;4989683;28;20430;-65
2023/11/30 04:23:31;;;;;;;22.87;13.97;;;3.20;99.90;;;;;;4988889;28;20192;-65
2023/11/30 04:25:56;;;;;;;23.20;14.23;;;3.30;99.90;;;;;;4989550;28;20944;-64
2023/11/30 04:28:22;;;;;;;22.07;12.93;;;3.20;99.90;;;;;;4988215;28;20202;-67
2023/11/30 04:30:48;;;;;;;21.23;13.73;;;3.20;99.90;;;;;;4990928;28;20692;-64
2023/11/30 04:33:13;;;;;;;20.00;11.70;;;3.30;99.90;;;;;;4987359;28;20294;-67
2023/11/30 04:35:39;;;;;;;20.40;12.60;;;3.20;99.90;;;;;;4988379;28;20180;-66
2023/11/30 04:38:05;;;;;;;21.80;14.30;;;3.10;99.90;;;;;;4989270;28;20179;-64
2023/11/30 04:40:30;;;;;;;22.50;14.30;;;3.10;99.90;;;;;;4988048;28;20195;-62
2023/11/30 04:42:56;;;;;;;20.87;13.40;;;3.20;99.90;;;;;;4989227;28;20264;-66
2023/11/30 04:45:22;;;;;;;19.00;12.57;;;3.10;99.90;;;;;;4988657;28;20243;-68
2023/11/30 04:47:47;;;;;;;19.27;12.53;;;3.10;99.90;;;;;;4989618;28;20924;-65
2023/11/30 04:50:13;;;;;;;21.37;13.67;;;3.20;99.90;;;;;;4987375;28;20650;-66
2023/11/30 04:52:39;;;;;;;19.10;11.70;;;3.10;99.90;;;;;;4989448;28;20980;-64
2023/11/30 04:55:06;;;;;;;19.10;11.77;;;3.00;99.90;;;;;;4986212;28;20776;-64
2023/11/30 04:57:31;;;;;;;23.50;13.67;;;3.00;99.90;;;;;;4987326;28;20188;-63
2023/11/30 04:59:57;;;;;;;20.97;12.93;;;3.00;99.90;;;;;;4989156;28;20456;-66
2023/11/30 05:02:23;;;;;;;18.27;13.00;;;3.00;99.90;;;;;;4986848;28;20199;-66
2023/11/30 05:04:48;;;;;;;21.03;12.67;;;3.00;99.90;;;;;;4987017;28;20222;-69
2023/11/30 05:07:14;;;;;;;23.70;13.57;;;3.00;99.90;;;;;;4986176;28;20202;-67
2023/11/30 05:09:40;;;;;;;22.47;14.30;;;2.90;99.90;;;;;;4988524;28;20253;-68
2023/11/30 05:12:06;;;;;;;23.00;14.07;;;2.90;99.90;;;;;;4988401;28;20262;-65
2023/11/30 05:14:31;;;;;;;21.07;14.27;;;2.90;99.90;;;;;;4987539;28;20552;-65
2023/11/30 05:16:57;;;;;;;19.90;13.60;;;2.90;99.90;;;;;;4988708;28;20426;-67
2023/11/30 05:19:23;;;;;;;20.97;13.20;;;2.90;99.90;;;;;;4987682;28;20694;-67
2023/11/30 05:21:48;;;;;;;21.43;13.30;;;3.00;99.90;;;;;;4990047;28;20650;-67
2023/11/30 05:24:15;;;;;;;21.10;13.77;;;3.00;99.90;;;;;;4986529;28;20191;-65
2023/11/30 05:26:41;;;;;;;23.00;14.23;;;2.90;99.90;;;;;;4988498;28;20242;-66
2023/11/30 05:29:07;;;;;;;22.13;13.43;;;2.90;99.90;;;;;;4987810;28;20453;-70
2023/11/30 05:31:33;;;;;;;22.07;13.60;;;2.90;99.90;;;;;;4987261;28;20431;-64
2023/11/30 05:33:59;;;;;;;21.33;14.03;;;3.00;99.90;;;;;;4987329;28;20192;-67
2023/11/30 05:36:25;;;;;;;22.57;13.30;;;3.00;99.90;;;;;;4986927;28;20950;-61
2023/11/30 05:38:51;;;;;;;20.10;13.20;;;3.00;99.90;;;;;;4988919;28;20773;-63
2023/11/30 05:41:17;;;;;;;17.90;12.17;;;3.10;99.90;;;;;;4987750;28;20286;-66
2023/11/30 05:43:42;;;;;;;20.60;13.23;;;3.20;99.90;;;;;;4988838;28;20570;-65
2023/11/30 05:46:08;;;;;;;20.20;13.50;;;3.20;99.90;;;;;;4989283;28;20276;-67
2023/11/30 05:48:34;;;;;;;18.50;12.73;;;3.20;99.90;;;;;;4989518;28;20186;-64
2023/11/30 05:50:59;;;;;;;20.63;13.90;;;3.10;99.90;;;;;;4972091;28;20199;-65
2023/11/30 05:53:25;;;;;;;25.57;15.00;;;3.10;99.90;;;;;;4988357;28;20188;-67
2023/11/30 05:55:51;;;;;;;20.30;14.10;;;3.00;99.90;;;;;;4989571;28;20232;-64
2023/11/30 05:58:16;;;;;;;23.37;13.10;;;3.10;99.90;;;;;;4993101;28;20430;-67
2023/11/30 06:00:42;;;;;;;20.57;13.53;;;3.10;99.90;;;;;;4989305;28;20270;-68
2023/11/30 06:03:08;;;;;;;22.43;14.17;;;3.10;99.90;;;;;;4990076;28;20649;-68
2023/11/30 06:05:34;;;;;;;20.83;13.40;;;3.10;99.90;;;;;;4988368;28;20470;-66
2023/11/30 06:07:59;;;;;;;20.20;13.77;;;3.10;99.90;;;;;;4988771;28;20245;-67
2023/11/30 06:10:25;;;;;;;23.00;13.70;;;3.10;99.90;;;;;;4989151;28;20210;-65
2023/11/30 06:12:51;;;;;;;22.77;14.37;;;3.00;99.90;;;;;;4989542;28;20223;-65
2023/11/30 06:15:16;;;;;;;19.87;13.07;;;3.00;99.90;;;;;;4988172;28;20196;-68
2023/11/30 06:17:42;;;;;;;23.93;13.83;;;3.00;99.90;;;;;;4988468;28;20187;-63
2023/11/30 06:20:12;;;;;;;22.53;14.97;;;3.10;99.90;;;;;;4989024;28;20187;-69
2023/11/30 06:22:39;;;;;;;23.60;14.33;;;3.10;99.90;;;;;;4988676;28;20183;-69
2023/11/30 06:25:05;;;;;;;21.10;13.37;;;3.00;99.90;;;;;;4987567;28;20475;-63
2023/11/30 06:27:31;;;;;;;20.13;12.57;;;3.10;99.90;;;;;;4988677;28;20435;-64
2023/11/30 06:29:57;;;;;;;24.37;13.60;;;3.10;99.90;;;;;;4987449;28;20430;-66
2023/11/30 06:32:22;;;;;;;20.70;13.87;;;3.10;99.90;;;;;;4990071;28;20207;-67
2023/11/30 06:34:48;;;;;;;19.67;13.30;;;3.00;99.90;;;;;;4988920;28;20191;-65
2023/11/30 06:37:14;;;;;;;22.03;14.27;;;2.90;99.90;;;;;;4990401;28;20276;-64
2023/11/30 06:39:42;;;;;;;18.80;12.90;;;2.90;99.90;;;;;;4987250;28;20645;-65
2023/11/30 06:42:08;;;;;;;22.10;14.03;;;2.80;99.90;;;;;;4988546;28;20900;-66
2023/11/30 06:44:34;;;;;;;19.13;13.53;;;2.90;99.90;;;;;;4988502;28;20423;-68
2023/11/30 06:46:59;;;;;;;23.47;14.40;;;2.80;99.90;;;;;;4990340;28;20202;-64
2023/11/30 06:49:25;;;;;;;27.60;17.10;;;2.80;99.90;;;;;;4990300;28;20187;-65
2023/11/30 06:51:52;;;;;;;34.13;21.83;;;2.70;99.90;;;;;;4989209;28;20187;-63
2023/11/30 06:54:18;;;;;;;30.33;19.03;;;2.70;99.90;;;;;;4988371;28;20295;-66
2023/11/30 06:56:43;;;;;;;27.37;19.23;;;2.70;99.90;;;;;;4988860;28;20544;-63
2023/11/30 06:59:09;;;;;;;25.03;17.93;;;2.70;99.90;;;;;;4990102;28;21246;-65
2023/11/30 07:01:36;;;;;;;28.90;17.70;;;2.80;99.90;;;;;;4989030;28;20178;-66
2023/11/30 07:04:02;;;;;;;26.30;18.40;;;2.80;99.90;;;;;;4988790;28;20188;-64
2023/11/30 07:06:27;;;;;;;33.50;20.67;;;2.70;99.90;;;;;;4990586;28;20806;-65
2023/11/30 07:08:53;;;;;;;30.57;20.23;;;2.70;99.90;;;;;;4989085;28;20488;-65
2023/11/30 07:11:19;;;;;;;31.00;20.80;;;2.70;99.90;;;;;;4990304;28;20219;-67
2023/11/30 07:13:44;;;;;;;29.33;19.13;;;2.70;99.90;;;;;;4988773;28;20188;-69
2023/11/30 07:16:10;;;;;;;29.77;20.10;;;2.60;99.90;;;;;;4986469;28;20616;-64
2023/11/30 07:18:36;;;;;;;33.00;21.77;;;2.60;99.90;;;;;;4973786;28;20218;-68
2023/11/30 07:21:03;;;;;;;34.40;22.20;;;2.70;99.90;;;;;;4987076;28;21281;-68
2023/11/30 07:23:29;;;;;;;24.77;17.57;;;2.60;99.90;;;;;;4987088;28;20562;-64
2023/11/30 07:25:58;;;;;;;23.50;15.97;;;2.60;99.90;;;;;;4981983;28;20475;-63
2023/11/30 07:28:25;;;;;;;22.23;16.10;;;2.50;99.90;;;;;;4987532;28;20537;-68
2023/11/30 07:30:50;;;;;;;24.03;15.40;;;2.50;99.90;;;;;;4986610;28;20487;-63
2023/11/30 07:33:16;;;;;;;21.80;16.20;;;2.50;99.90;;;;;;4985992;28;20450;-62
2023/11/30 07:35:42;;;;;;;24.43;16.40;;;2.40;99.90;;;;;;4987271;28;20948;-68
2023/11/30 07:38:08;;;;;;;22.40;15.30;;;2.40;99.90;;;;;;4986867;28;20435;-62
2023/11/30 07:40:34;;;;;;;23.77;16.10;;;2.40;99.90;;;;;;4986020;28;20438;-66
2023/11/30 07:43:00;;;;;;;26.70;16.77;;;2.30;99.90;;;;;;4985223;28;20595;-66
2023/11/30 07:45:28;;;;;;;21.47;15.07;;;2.30;99.90;;;;;;4984124;28;20215;-62
2023/11/30 07:47:56;;;;;;;23.67;14.97;;;2.40;99.90;;;;;;4985881;28;20466;-65
2023/11/30 07:50:22;;;;;;;20.43;14.40;;;2.40;99.90;;;;;;4983262;28;20483;-61
2023/11/30 07:52:47;;;;;;;22.30;13.80;;;2.40;99.90;;;;;;4985656;28;20541;-64
2023/11/30 07:55:13;;;;;;;23.63;15.83;;;2.40;99.90;;;;;;4987050;28;21236;-65
2023/11/30 07:57:39;;;;;;;22.90;14.60;;;2.40;99.90;;;;;;4989323;28;20187;-65
2023/11/30 08:00:07;;;;;;;20.87;13.87;;;2.40;99.90;;;;;;4985955;28;20461;-69
2023/11/30 08:02:34;;;;;;;21.57;15.07;;;2.40;99.90;;;;;;4986704;28;20200;-69
2023/11/30 08:05:00;;;;;;;22.53;14.60;;;2.40;99.90;;;;;;4985979;28;20468;-63
2023/11/30 08:07:25;;;;;;;21.27;14.47;;;2.40;99.90;;;;;;4986791;28;20463;-70
2023/11/30 08:09:52;;;;;;;22.40;13.97;;;2.40;99.90;;;;;;4986510;28;20932;-68
2023/11/30 08:12:18;;;;;;;23.60;16.13;;;2.40;99.90;;;;;;4989837;28;20193;-74
2023/11/30 08:14:44;;;;;;;22.10;13.70;;;2.40;99.90;;;;;;4989040;28;20427;-69
2023/11/30 08:17:10;;;;;;;21.37;13.90;;;2.40;99.90;;;;;;4991027;28;20935;-74
2023/11/30 08:19:36;;;;;;;24.83;14.37;;;2.40;99.90;;;;;;4991522;28;20188;-68
2023/11/30 08:22:01;;;;;;;18.80;13.37;;;2.40;99.90;;;;;;4990054;28;20786;-66
2023/11/30 08:24:28;;;;;;;26.23;15.10;;;2.40;99.90;;;;;;4988515;28;20187;-66
2023/11/30 08:26:54;;;;;;;26.20;17.00;;;2.40;99.90;;;;;;4991104;28;20227;-65
2023/11/30 08:29:19;;;;;;;25.03;15.60;;;2.40;99.90;;;;;;4991834;28;20426;-63
2023/11/30 08:31:45;;;;;;;20.53;13.80;;;2.40;99.90;;;;;;4990958;28;20194;-62
2023/11/30 08:34:11;;;;;;;22.53;15.10;;;2.30;99.90;;;;;;4991070;28;20885;-70
2023/11/30 08:36:36;;;;;;;25.60;13.77;;;2.40;99.90;;;;;;4990652;28;20183;-66
2023/11/30 08:39:03;;;;;;;25.40;16.50;;;2.40;99.90;;;;;;4989940;28;20210;-70
2023/11/30 08:41:30;;;;;;;23.27;14.50;;;2.40;99.90;;;;;;4991501;28;20194;-67
2023/11/30 08:43:56;;;;;;;27.10;17.00;;;2.50;99.90;;;;;;4989884;28;20788;-70
2023/11/30 08:46:22;;;;;;;24.97;15.33;;;2.60;99.90;;;;;;4990763;28;21294;-66
2023/11/30 08:48:47;;;;;;;21.40;14.90;;;2.60;99.90;;;;;;4991228;28;20430;-71
2023/11/30 08:51:13;;;;;;;27.77;16.07;;;2.70;99.90;;;;;;4990992;28;20187;-70
2023/11/30 08:53:40;;;;;;;26.97;14.83;;;2.60;99.90;;;;;;4990952;28;20206;-66
2023/11/30 08:56:06;;;;;;;24.90;16.37;;;2.60;99.90;;;;;;4990186;28;20431;-64
2023/11/30 08:58:32;;;;;;;23.47;16.10;;;2.70;99.90;;;;;;4992731;28;20427;-65
2023/11/30 09:00:57;;;;;;;20.67;15.47;;;2.80;99.90;;;;;;4990924;28;20580;-67
2023/11/30 09:03:23;;;;;;;24.10;16.00;;;2.90;99.90;;;;;;4991249;28;20215;-68
2023/11/30 09:05:48;;;;;;;26.03;17.20;;;3.00;99.90;;;;;;4990533;28;20244;-70
2023/11/30 09:08:14;;;;;;;22.30;15.00;;;3.30;99.90;;;;;;4990863;28;20183;-72
2023/11/30 09:10:40;;;;;;;23.37;16.27;;;3.40;99.90;;;;;;4990065;28;20186;-67
2023/11/30 09:13:07;;;;;;;23.37;16.00;;;3.60;99.90;;;;;;4988824;28;20192;-66
2023/11/30 09:15:33;;;;;;;22.67;15.00;;;3.80;99.90;;;;;;4990641;28;20188;-70
2023/11/30 09:18:01;;;;;;;22.73;15.40;;;4.10;99.90;;;;;;4990703;28;20449;-69
2023/11/30 09:20:27;;;;;;;21.10;15.33;;;4.40;99.90;;;;;;4991372;28;20478;-71
2023/11/30 09:22:53;;;;;;;22.83;16.00;;;4.60;99.90;;;;;;4989842;28;20898;-67
2023/11/30 09:25:19;;;;;;;21.23;15.23;;;4.70;99.90;;;;;;4990672;28;20554;-72
2023/11/30 09:27:45;;;;;;;21.90;16.00;;;4.60;99.90;;;;;;4991081;28;20427;-70
2023/11/30 09:30:11;;;;;;;22.30;15.40;;;4.50;99.90;;;;;;4991250;28;20786;-68
2023/11/30 09:32:37;;;;;;;21.73;14.80;;;4.50;99.90;;;;;;4989428;28;20204;-66
2023/11/30 09:35:04;;;;;;;22.23;14.03;;;4.60;99.90;;;;;;5088256;27;20831;-67
2023/11/30 09:37:30;;;;;;;23.10;15.10;;;4.80;99.90;;;;;;4989863;28;20437;-70
2023/11/30 09:39:55;;;;;;;22.90;15.53;;;5.00;99.90;;;;;;4988316;28;20790;-69
2023/11/30 09:42:24;;;;;;;21.90;16.40;;;5.20;99.90;;;;;;4990998;28;20247;-70
2023/11/30 09:44:53;;;;;;;24.90;15.27;;;5.50;99.90;;;;;;4990706;28;20179;-66
2023/11/30 09:47:21;;;;;;;21.03;14.10;;;5.60;99.90;;;;;;4990512;28;21141;-63
2023/11/30 09:49:47;;;;;;;24.30;16.93;;;5.70;99.90;;;;;;4990966;28;20979;-71
2023/11/30 09:52:12;;;;;;;22.30;16.37;;;5.80;99.90;;;;;;4989718;28;20427;-64
2023/11/30 09:54:38;;;;;;;22.60;15.50;;;6.00;99.90;;;;;;4990300;28;20458;-68
2023/11/30 09:57:04;;;;;;;23.23;13.90;;;6.30;99.90;;;;;;4992396;28;20250;-71
2023/11/30 09:59:30;;;;;;;21.30;16.17;;;6.30;99.90;;;;;;4989960;28;20820;-65
2023/11/30 10:01:58;;;;;;;22.40;15.03;;;6.40;99.90;;;;;;4990352;28;20192;-72
2023/11/30 10:04:27;;;;;;;21.70;14.97;;;6.40;99.90;;;;;;4989328;28;20184;-68
2023/11/30 10:06:56;;;;;;;18.47;13.33;;;6.60;99.90;;;;;;4989420;28;20544;-75
2023/11/30 10:09:23;;;;;;;18.07;12.90;;;7.00;99.90;;;;;;4989852;28;20952;-64
2023/11/30 10:11:49;;;;;;;20.93;14.30;;;7.20;99.90;;;;;;4989721;28;20783;-71
2023/11/30 10:14:17;;;;;;;19.70;13.43;;;7.20;99.90;;;;;;4988842;28;20451;-66
2023/11/30 10:16:44;;;;;;;21.13;14.87;;;7.20;99.90;;;;;;4991274;28;20480;-65
2023/11/30 10:19:10;;;;;;;18.60;13.17;;;7.10;99.90;;;;;;4991082;28;20445;-70
2023/11/30 10:21:37;;;;;;;20.33;14.53;;;7.00;99.90;;;;;;4991093;28;20458;-67
2023/11/30 10:24:03;;;;;;;19.03;14.37;;;6.90;99.90;;;;;;4990838;28;20520;-65
2023/11/30 10:26:33;;;;;;;20.10;14.70;;;6.70;99.90;;;;;;4992667;28;20919;-73
2023/11/30 10:29:02;;;;;;;16.67;12.33;;;6.50;99.90;;;;;;4992482;28;20431;-71
2023/11/30 10:31:28;;;;;;;19.47;13.50;;;6.50;99.90;;;;;;4993244;28;20430;-69
2023/11/30 10:34:09;;;;;;;18.77;13.67;;;6.40;99.90;;;;;;4992689;28;20796;-70
2023/11/30 10:36:37;;;;;;;21.47;13.57;;;6.30;99.90;;;;;;4993050;28;20867;-64
2023/11/30 10:39:16;;;;;;;19.33;13.70;;;6.40;99.90;;;;;;4991583;28;20431;-66
2023/11/30 10:41:54;;;;;;;17.10;13.10;;;6.40;99.90;;;;;;4993482;28;20430;-66
2023/11/30 10:44:30;;;;;;;18.43;13.17;;;6.40;99.90;;;;;;4990975;28;21011;-71
2023/11/30 10:46:58;;;;;;;19.07;13.10;;;6.40;99.90;;;;;;4993372;28;20479;-70
2023/11/30 10:49:25;;;;;;;19.17;14.00;;;6.30;99.90;;;;;;4992607;28;20434;-65
2023/11/30 10:51:54;;;;;;;20.63;14.70;;;6.20;99.90;;;;;;4993558;28;20517;-70
2023/11/30 10:54:51;;;;;;;20.10;13.37;;;6.10;99.90;;;;;;4991240;28;20441;-73
2023/11/30 10:57:19;;;;;;;18.40;13.27;;;5.90;99.90;;;;;;4995555;28;20435;-67
2023/11/30 10:59:44;;;;;;;18.03;12.47;;;5.80;99.90;;;;;;4992730;28;20423;-72
2023/11/30 11:02:12;;;;;;;19.23;13.50;;;5.70;99.90;;;;;;4993652;28;20970;-71
2023/11/30 11:04:42;;;;;;;17.27;11.93;;;5.70;99.90;;;;;;4992810;28;20557;-65
2023/11/30 11:07:11;;;;;;;17.67;12.90;;;5.90;99.90;;;;;;4992688;28;20592;-72
2023/11/30 11:09:44;;;;;;;15.90;11.40;;;5.90;99.90;;;;;;4992966;28;20427;-66
2023/11/30 11:12:37;;;;;;;16.77;12.40;;;5.80;99.90;;;;;;4992776;28;20465;-67
2023/11/30 11:15:11;;;;;;;15.93;11.40;;;5.90;99.90;;;;;;4993017;28;20818;-66
2023/11/30 11:17:49;;;;;;;13.10;9.47;;;5.90;99.90;;;;;;4992522;28;21132;-71
2023/11/30 11:20:26;;;;;;;15.50;10.30;;;6.00;99.90;;;;;;4992921;28;20457;-63
2023/11/30 11:23:09;;;;;;;12.47;9.27;;;6.00;99.90;;;;;;4993396;28;20432;-69
2023/11/30 11:25:41;;;;;;;19.57;9.60;;;6.00;99.90;;;;;;4992165;28;20509;-66
2023/11/30 11:28:06;;;;;;;11.93;9.40;;;6.10;99.90;;;;;;4984756;28;20864;-67
2023/11/30 11:30:33;;;;;;;14.83;10.53;;;6.20;99.90;;;;;;4986048;28;20446;-67
2023/11/30 11:32:59;;;;;;;12.80;9.77;;;6.30;99.90;;;;;;4989822;28;20699;-70
2023/11/30 11:35:26;;;;;;;14.60;10.27;;;6.30;99.90;;;;;;4993370;28;20419;-71
2023/11/30 11:37:56;;;;;;;13.67;9.67;;;6.40;99.90;;;;;;4992980;28;20437;-66
2023/11/30 11:40:22;;;;;;;18.40;10.17;;;6.60;99.90;;;;;;4991947;28;20457;-68
2023/11/30 11:42:47;;;;;;;13.60;9.80;;;6.70;99.90;;;;;;4991692;28;20423;-69
2023/11/30 11:45:14;;;;;;;12.53;9.83;;;6.90;99.90;;;;;;4993773;28;20799;-70
2023/11/30 11:47:40;;;;;;;15.50;10.27;;;7.30;99.90;;;;;;4994621;28;20186;-65
2023/11/30 11:50:07;;;;;;;12.10;9.57;;;7.40;99.90;;;;;;4994995;28;20433;-66
2023/11/30 11:52:33;;;;;;;12.63;9.30;;;7.60;99.90;;;;;;4994839;28;20426;-72
2023/11/30 11:55:05;;;;;;;14.40;10.30;;;7.50;99.90;;;;;;4994228;28;20512;-64
2023/11/30 11:57:38;;;;;;;11.50;9.40;;;7.50;99.90;;;;;;4995798;28;20465;-70
2023/11/30 12:00:13;;;;;;;13.70;9.00;;;7.50;99.90;;;;;;4992985;28;20998;-71
2023/11/30 12:02:39;;;;;;;10.93;8.63;;;7.60;99.90;;;;;;4989385;28;20440;-64
2023/11/30 12:05:16;;;;;;;11.80;8.53;;;7.40;99.90;;;;;;4994513;28;21285;-70
2023/11/30 12:07:48;;;;;;;12.60;9.93;;;7.40;99.90;;;;;;4997707;28;20183;-71
2023/11/30 12:10:32;;;;;;;12.03;9.20;;;7.50;99.90;;;;;;4995756;28;21016;-67
2023/11/30 12:12:59;;;;;;;11.87;9.80;;;7.60;99.90;;;;;;5010489;28;20435;-69
2023/11/30 12:15:25;;;;;;;12.50;9.27;;;7.50;99.90;;;;;;4996234;28;20430;-70
2023/11/30 12:17:52;;;;;;;12.33;8.60;;;7.30;99.90;;;;;;4996081;28;20430;-71
2023/11/30 12:20:18;;;;;;;11.50;8.80;;;7.20;99.90;;;;;;4997710;28;20431;-64
2023/11/30 12:22:45;;;;;;;11.10;8.37;;;7.10;99.90;;;;;;4995016;28;20462;-68
2023/11/30 12:25:10;;;;;;;10.93;8.40;;;7.10;99.90;;;;;;4992331;28;20991;-67
2023/11/30 12:27:36;;;;;;;12.70;8.80;;;7.10;99.90;;;;;;4996163;28;20481;-66
2023/11/30 12:30:02;;;;;;;12.93;8.53;;;7.00;99.90;;;;;;4994960;28;20483;-67
2023/11/30 12:32:28;;;;;;;11.07;8.30;;;6.90;99.90;;;;;;4997079;28;20295;-67
2023/11/30 12:34:57;;;;;;;11.67;8.77;;;6.90;99.90;;;;;;4995021;28;20522;-67